sensor_id;sensor_type;location;lat;lon;timestamp;P1;durP1;ratioP1;P2;durP2;ratioP2
64619;SDS011;51029;51.058;13.826;2022-07-10T00:00:04;4.23;;;1.90;;
64619;SDS011;51029;51.058;13.826;2022-07-10T00:02:31;5.20;;;2.10;;
64619;SDS011;51029;51.058;13.826;2022-07-10T00:04:56;3.13;;;2.20;;
64619;SDS011;51029;51.058;13.826;2022-07-10T00:07:22;4.57;;;2.03;;
64619;SDS011;51029;51.058;13.826;2022-07-10T00:09:48;4.87;;;1.90;;
64619;SDS011;51029;51.058;13.826;2022-07-10T00:12:14;4.00;;;2.03;;
64619;SDS011;51029;51.058;13.826;2022-07-10T00:14:40;3.40;;;2.20;;
64619;SDS011;51029;51.058;13.826;2022-07-10T00:17:06;3.70;;;2.17;;
64619;SDS011;51029;51.058;13.826;2022-07-10T00:19:32;4.87;;;2.20;;
64619;SDS011;51029;51.058;13.826;2022-07-10T00:21:58;3.90;;;2.30;;
64619;SDS011;51029;51.058;13.826;2022-07-10T00:24:24;3.43;;;1.83;;
64619;SDS011;51029;51.058;13.826;2022-07-10T00:26:50;6.27;;;1.67;;
64619;SDS011;51029;51.058;13.826;2022-07-10T00:29:16;3.70;;;1.90;;
64619;SDS011;51029;51.058;13.826;2022-07-10T00:31:42;3.77;;;2.00;;
64619;SDS011;51029;51.058;13.826;2022-07-10T00:34:08;4.50;;;1.80;;
64619;SDS011;51029;51.058;13.826;2022-07-10T00:36:34;5.87;;;1.93;;
64619;SDS011;51029;51.058;13.826;2022-07-10T00:39:00;4.43;;;1.60;;
64619;SDS011;51029;51.058;13.826;2022-07-10T00:41:26;4.57;;;1.83;;
64619;SDS011;51029;51.058;13.826;2022-07-10T00:43:55;3.57;;;1.70;;
64619;SDS011;51029;51.058;13.826;2022-07-10T00:46:22;6.50;;;1.87;;
64619;SDS011;51029;51.058;13.826;2022-07-10T00:48:48;5.13;;;1.63;;
64619;SDS011;51029;51.058;13.826;2022-07-10T00:51:15;3.90;;;1.60;;
64619;SDS011;51029;51.058;13.826;2022-07-10T00:53:42;5.20;;;2.10;;
64619;SDS011;51029;51.058;13.826;2022-07-10T00:56:10;4.50;;;1.80;;
64619;SDS011;51029;51.058;13.826;2022-07-10T00:58:37;7.20;;;2.20;;
64619;SDS011;51029;51.058;13.826;2022-07-10T01:01:04;6.73;;;1.73;;
64619;SDS011;51029;51.058;13.826;2022-07-10T01:03:30;4.13;;;1.70;;
64619;SDS011;51029;51.058;13.826;2022-07-10T01:05:56;5.23;;;1.80;;
64619;SDS011;51029;51.058;13.826;2022-07-10T01:08:23;6.40;;;1.53;;
64619;SDS011;51029;51.058;13.826;2022-07-10T01:10:49;6.03;;;2.00;;
64619;SDS011;51029;51.058;13.826;2022-07-10T01:13:15;6.47;;;2.33;;
64619;SDS011;51029;51.058;13.826;2022-07-10T01:15:41;4.63;;;1.80;;
64619;SDS011;51029;51.058;13.826;2022-07-10T01:18:07;5.03;;;1.60;;
64619;SDS011;51029;51.058;13.826;2022-07-10T01:20:34;4.20;;;1.70;;
64619;SDS011;51029;51.058;13.826;2022-07-10T01:23:00;3.87;;;1.73;;
64619;SDS011;51029;51.058;13.826;2022-07-10T01:25:27;4.90;;;1.90;;
64619;SDS011;51029;51.058;13.826;2022-07-10T01:27:53;4.17;;;1.70;;
64619;SDS011;51029;51.058;13.826;2022-07-10T01:30:19;3.47;;;1.50;;
64619;SDS011;51029;51.058;13.826;2022-07-10T01:32:45;7.17;;;1.57;;
64619;SDS011;51029;51.058;13.826;2022-07-10T01:35:12;5.90;;;1.47;;
64619;SDS011;51029;51.058;13.826;2022-07-10T01:37:38;5.67;;;1.50;;
64619;SDS011;51029;51.058;13.826;2022-07-10T01:40:04;5.20;;;1.70;;
64619;SDS011;51029;51.058;13.826;2022-07-10T01:42:31;7.63;;;1.73;;
64619;SDS011;51029;51.058;13.826;2022-07-10T01:44:57;9.00;;;1.40;;
64619;SDS011;51029;51.058;13.826;2022-07-10T01:47:23;3.37;;;1.53;;
64619;SDS011;51029;51.058;13.826;2022-07-10T01:49:53;5.27;;;1.67;;
64619;SDS011;51029;51.058;13.826;2022-07-10T01:52:19;7.50;;;1.70;;
64619;SDS011;51029;51.058;13.826;2022-07-10T01:54:46;3.23;;;1.37;;
64619;SDS011;51029;51.058;13.826;2022-07-10T01:57:12;5.30;;;1.40;;
64619;SDS011;51029;51.058;13.826;2022-07-10T01:59:39;6.07;;;1.97;;
64619;SDS011;51029;51.058;13.826;2022-07-10T02:02:05;3.83;;;1.70;;
64619;SDS011;51029;51.058;13.826;2022-07-10T02:04:31;5.57;;;1.60;;
64619;SDS011;51029;51.058;13.826;2022-07-10T02:07:12;2.97;;;1.60;;
64619;SDS011;51029;51.058;13.826;2022-07-10T02:09:39;8.33;;;1.80;;
64619;SDS011;51029;51.058;13.826;2022-07-10T02:12:05;4.57;;;1.40;;
64619;SDS011;51029;51.058;13.826;2022-07-10T02:14:32;7.63;;;1.70;;
64619;SDS011;51029;51.058;13.826;2022-07-10T02:16:58;3.53;;;1.63;;
64619;SDS011;51029;51.058;13.826;2022-07-10T02:19:24;6.57;;;1.50;;
64619;SDS011;51029;51.058;13.826;2022-07-10T02:21:50;5.20;;;1.33;;
64619;SDS011;51029;51.058;13.826;2022-07-10T02:24:16;6.30;;;1.47;;
64619;SDS011;51029;51.058;13.826;2022-07-10T02:26:43;5.20;;;1.50;;
64619;SDS011;51029;51.058;13.826;2022-07-10T02:29:09;9.17;;;1.80;;
64619;SDS011;51029;51.058;13.826;2022-07-10T02:31:35;5.13;;;1.53;;
64619;SDS011;51029;51.058;13.826;2022-07-10T02:34:05;5.43;;;1.50;;
64619;SDS011;51029;51.058;13.826;2022-07-10T02:36:32;4.80;;;1.57;;
64619;SDS011;51029;51.058;13.826;2022-07-10T02:38:58;6.13;;;1.40;;
64619;SDS011;51029;51.058;13.826;2022-07-10T02:41:24;5.67;;;1.53;;
64619;SDS011;51029;51.058;13.826;2022-07-10T02:43:50;4.67;;;1.60;;
64619;SDS011;51029;51.058;13.826;2022-07-10T02:46:16;4.17;;;1.50;;
64619;SDS011;51029;51.058;13.826;2022-07-10T02:48:42;3.83;;;1.60;;
64619;SDS011;51029;51.058;13.826;2022-07-10T02:51:07;6.20;;;1.60;;
64619;SDS011;51029;51.058;13.826;2022-07-10T02:53:34;4.70;;;1.70;;
64619;SDS011;51029;51.058;13.826;2022-07-10T02:56:00;4.23;;;1.47;;
64619;SDS011;51029;51.058;13.826;2022-07-10T02:58:25;4.03;;;1.37;;
64619;SDS011;51029;51.058;13.826;2022-07-10T03:00:52;4.27;;;1.77;;
64619;SDS011;51029;51.058;13.826;2022-07-10T03:03:18;5.40;;;1.50;;
64619;SDS011;51029;51.058;13.826;2022-07-10T03:05:44;5.17;;;1.50;;
64619;SDS011;51029;51.058;13.826;2022-07-10T03:08:10;4.53;;;1.53;;
64619;SDS011;51029;51.058;13.826;2022-07-10T03:10:36;3.43;;;1.33;;
64619;SDS011;51029;51.058;13.826;2022-07-10T03:13:02;5.43;;;1.60;;
64619;SDS011;51029;51.058;13.826;2022-07-10T03:15:28;4.23;;;1.40;;
64619;SDS011;51029;51.058;13.826;2022-07-10T03:17:54;4.30;;;1.57;;
64619;SDS011;51029;51.058;13.826;2022-07-10T03:20:20;4.37;;;1.40;;
64619;SDS011;51029;51.058;13.826;2022-07-10T03:22:46;3.20;;;1.50;;
64619;SDS011;51029;51.058;13.826;2022-07-10T03:25:12;6.70;;;1.53;;
64619;SDS011;51029;51.058;13.826;2022-07-10T03:27:41;3.93;;;1.60;;
64619;SDS011;51029;51.058;13.826;2022-07-10T03:30:07;4.07;;;1.30;;
64619;SDS011;51029;51.058;13.826;2022-07-10T03:32:33;4.07;;;1.37;;
64619;SDS011;51029;51.058;13.826;2022-07-10T03:34:59;4.80;;;1.60;;
64619;SDS011;51029;51.058;13.826;2022-07-10T03:37:25;3.47;;;1.47;;
64619;SDS011;51029;51.058;13.826;2022-07-10T03:39:51;3.97;;;1.50;;
64619;SDS011;51029;51.058;13.826;2022-07-10T03:42:17;5.80;;;1.60;;
64619;SDS011;51029;51.058;13.826;2022-07-10T03:44:43;5.67;;;1.77;;
64619;SDS011;51029;51.058;13.826;2022-07-10T03:47:09;3.87;;;1.50;;
64619;SDS011;51029;51.058;13.826;2022-07-10T03:49:35;4.13;;;1.37;;
64619;SDS011;51029;51.058;13.826;2022-07-10T03:52:04;4.27;;;1.53;;
64619;SDS011;51029;51.058;13.826;2022-07-10T03:54:30;3.50;;;1.23;;
64619;SDS011;51029;51.058;13.826;2022-07-10T03:56:56;6.03;;;1.57;;
64619;SDS011;51029;51.058;13.826;2022-07-10T03:59:41;5.20;;;1.30;;
64619;SDS011;51029;51.058;13.826;2022-07-10T04:02:07;5.10;;;1.57;;
64619;SDS011;51029;51.058;13.826;2022-07-10T04:04:33;5.97;;;1.60;;
64619;SDS011;51029;51.058;13.826;2022-07-10T04:06:59;5.27;;;1.50;;
64619;SDS011;51029;51.058;13.826;2022-07-10T04:09:25;4.13;;;1.30;;
64619;SDS011;51029;51.058;13.826;2022-07-10T04:11:51;5.10;;;1.70;;
64619;SDS011;51029;51.058;13.826;2022-07-10T04:14:17;3.17;;;1.37;;
64619;SDS011;51029;51.058;13.826;2022-07-10T04:16:43;5.20;;;1.73;;
64619;SDS011;51029;51.058;13.826;2022-07-10T04:19:09;4.77;;;1.67;;
64619;SDS011;51029;51.058;13.826;2022-07-10T04:21:35;6.13;;;1.90;;
64619;SDS011;51029;51.058;13.826;2022-07-10T04:24:02;3.87;;;1.60;;
64619;SDS011;51029;51.058;13.826;2022-07-10T04:26:28;5.50;;;1.63;;
64619;SDS011;51029;51.058;13.826;2022-07-10T04:28:53;4.77;;;1.40;;
64619;SDS011;51029;51.058;13.826;2022-07-10T04:31:19;4.80;;;1.40;;
64619;SDS011;51029;51.058;13.826;2022-07-10T04:33:46;4.97;;;1.30;;
64619;SDS011;51029;51.058;13.826;2022-07-10T04:36:12;4.93;;;1.30;;
64619;SDS011;51029;51.058;13.826;2022-07-10T04:38:37;4.53;;;1.43;;
64619;SDS011;51029;51.058;13.826;2022-07-10T04:41:03;3.27;;;1.37;;
64619;SDS011;51029;51.058;13.826;2022-07-10T04:43:30;3.10;;;1.20;;
64619;SDS011;51029;51.058;13.826;2022-07-10T04:45:56;6.07;;;1.57;;
64619;SDS011;51029;51.058;13.826;2022-07-10T04:48:22;3.67;;;1.30;;
64619;SDS011;51029;51.058;13.826;2022-07-10T04:50:49;6.40;;;1.40;;
64619;SDS011;51029;51.058;13.826;2022-07-10T04:53:15;5.43;;;1.20;;
64619;SDS011;51029;51.058;13.826;2022-07-10T04:55:41;7.33;;;1.50;;
64619;SDS011;51029;51.058;13.826;2022-07-10T04:58:07;7.40;;;1.40;;
64619;SDS011;51029;51.058;13.826;2022-07-10T05:00:32;6.90;;;1.70;;
64619;SDS011;51029;51.058;13.826;2022-07-10T05:02:58;5.27;;;1.50;;
64619;SDS011;51029;51.058;13.826;2022-07-10T05:05:24;5.03;;;1.20;;
64619;SDS011;51029;51.058;13.826;2022-07-10T05:07:50;3.77;;;1.57;;
64619;SDS011;51029;51.058;13.826;2022-07-10T05:10:16;4.37;;;1.30;;
64619;SDS011;51029;51.058;13.826;2022-07-10T05:12:42;4.77;;;1.53;;
64619;SDS011;51029;51.058;13.826;2022-07-10T05:15:08;2.70;;;1.23;;
64619;SDS011;51029;51.058;13.826;2022-07-10T05:17:34;6.17;;;1.67;;
64619;SDS011;51029;51.058;13.826;2022-07-10T05:20:00;4.83;;;1.37;;
64619;SDS011;51029;51.058;13.826;2022-07-10T05:22:26;5.13;;;1.30;;
64619;SDS011;51029;51.058;13.826;2022-07-10T05:24:55;6.53;;;1.80;;
64619;SDS011;51029;51.058;13.826;2022-07-10T05:27:21;4.93;;;1.67;;
64619;SDS011;51029;51.058;13.826;2022-07-10T05:29:47;5.47;;;1.43;;
64619;SDS011;51029;51.058;13.826;2022-07-10T05:32:13;4.30;;;1.10;;
64619;SDS011;51029;51.058;13.826;2022-07-10T05:34:39;4.90;;;1.37;;
64619;SDS011;51029;51.058;13.826;2022-07-10T05:37:05;6.73;;;1.37;;
64619;SDS011;51029;51.058;13.826;2022-07-10T05:39:32;2.70;;;1.40;;
64619;SDS011;51029;51.058;13.826;2022-07-10T05:41:58;4.43;;;1.50;;
64619;SDS011;51029;51.058;13.826;2022-07-10T05:44:24;7.20;;;1.50;;
64619;SDS011;51029;51.058;13.826;2022-07-10T05:46:50;4.97;;;1.40;;
64619;SDS011;51029;51.058;13.826;2022-07-10T05:49:16;5.20;;;1.37;;
64619;SDS011;51029;51.058;13.826;2022-07-10T05:51:42;5.87;;;1.30;;
64619;SDS011;51029;51.058;13.826;2022-07-10T05:54:08;4.33;;;1.03;;
64619;SDS011;51029;51.058;13.826;2022-07-10T05:56:34;4.47;;;1.37;;
64619;SDS011;51029;51.058;13.826;2022-07-10T05:59:00;3.27;;;1.20;;
64619;SDS011;51029;51.058;13.826;2022-07-10T06:01:26;4.63;;;1.40;;
64619;SDS011;51029;51.058;13.826;2022-07-10T06:03:52;5.27;;;1.30;;
64619;SDS011;51029;51.058;13.826;2022-07-10T06:06:18;5.13;;;1.43;;
64619;SDS011;51029;51.058;13.826;2022-07-10T06:08:44;5.13;;;1.50;;
64619;SDS011;51029;51.058;13.826;2022-07-10T06:11:10;3.50;;;1.20;;
64619;SDS011;51029;51.058;13.826;2022-07-10T06:13:37;2.87;;;1.10;;
64619;SDS011;51029;51.058;13.826;2022-07-10T06:16:03;4.03;;;1.23;;
64619;SDS011;51029;51.058;13.826;2022-07-10T06:18:29;5.17;;;1.13;;
64619;SDS011;51029;51.058;13.826;2022-07-10T06:20:55;1.87;;;0.90;;
64619;SDS011;51029;51.058;13.826;2022-07-10T06:23:21;1.23;;;0.83;;
64619;SDS011;51029;51.058;13.826;2022-07-10T06:25:47;0.90;;;0.73;;
64619;SDS011;51029;51.058;13.826;2022-07-10T06:28:14;3.37;;;1.00;;
64619;SDS011;51029;51.058;13.826;2022-07-10T06:30:40;2.40;;;0.80;;
64619;SDS011;51029;51.058;13.826;2022-07-10T06:33:06;2.07;;;1.00;;
64619;SDS011;51029;51.058;13.826;2022-07-10T06:35:32;3.07;;;0.87;;
64619;SDS011;51029;51.058;13.826;2022-07-10T06:37:58;2.50;;;0.97;;
64619;SDS011;51029;51.058;13.826;2022-07-10T06:40:24;3.23;;;0.90;;
64619;SDS011;51029;51.058;13.826;2022-07-10T06:42:50;6.37;;;1.00;;
64619;SDS011;51029;51.058;13.826;2022-07-10T06:45:16;3.73;;;1.07;;
64619;SDS011;51029;51.058;13.826;2022-07-10T06:47:42;2.63;;;1.00;;
64619;SDS011;51029;51.058;13.826;2022-07-10T06:50:20;2.23;;;1.00;;
64619;SDS011;51029;51.058;13.826;2022-07-10T06:52:47;3.17;;;1.10;;
64619;SDS011;51029;51.058;13.826;2022-07-10T06:55:13;1.83;;;1.00;;
64619;SDS011;51029;51.058;13.826;2022-07-10T06:57:39;4.00;;;1.33;;
64619;SDS011;51029;51.058;13.826;2022-07-10T07:00:05;3.57;;;1.33;;
64619;SDS011;51029;51.058;13.826;2022-07-10T07:02:31;3.33;;;1.27;;
64619;SDS011;51029;51.058;13.826;2022-07-10T07:04:57;3.50;;;1.33;;
64619;SDS011;51029;51.058;13.826;2022-07-10T07:07:23;4.13;;;0.90;;
64619;SDS011;51029;51.058;13.826;2022-07-10T07:09:49;3.37;;;1.10;;
64619;SDS011;51029;51.058;13.826;2022-07-10T07:12:15;3.57;;;1.00;;
64619;SDS011;51029;51.058;13.826;2022-07-10T07:14:42;2.97;;;1.03;;
64619;SDS011;51029;51.058;13.826;2022-07-10T07:17:08;1.37;;;0.90;;
64619;SDS011;51029;51.058;13.826;2022-07-10T07:19:36;2.53;;;0.97;;
64619;SDS011;51029;51.058;13.826;2022-07-10T07:22:23;3.27;;;1.00;;
64619;SDS011;51029;51.058;13.826;2022-07-10T07:25:09;2.20;;;0.80;;
64619;SDS011;51029;51.058;13.826;2022-07-10T07:27:38;2.97;;;1.10;;
64619;SDS011;51029;51.058;13.826;2022-07-10T07:30:04;4.10;;;1.27;;
64619;SDS011;51029;51.058;13.826;2022-07-10T07:32:31;2.40;;;0.77;;
64619;SDS011;51029;51.058;13.826;2022-07-10T07:34:57;4.03;;;0.97;;
64619;SDS011;51029;51.058;13.826;2022-07-10T07:37:33;3.50;;;1.10;;
64619;SDS011;51029;51.058;13.826;2022-07-10T07:39:59;3.47;;;1.10;;
64619;SDS011;51029;51.058;13.826;2022-07-10T07:42:25;2.40;;;0.90;;
64619;SDS011;51029;51.058;13.826;2022-07-10T07:44:51;2.70;;;0.87;;
64619;SDS011;51029;51.058;13.826;2022-07-10T07:47:17;4.07;;;0.80;;
64619;SDS011;51029;51.058;13.826;2022-07-10T07:49:43;3.93;;;1.10;;
64619;SDS011;51029;51.058;13.826;2022-07-10T07:52:10;5.07;;;1.20;;
64619;SDS011;51029;51.058;13.826;2022-07-10T07:54:36;2.50;;;0.87;;
64619;SDS011;51029;51.058;13.826;2022-07-10T07:57:02;2.93;;;1.00;;
64619;SDS011;51029;51.058;13.826;2022-07-10T07:59:28;2.13;;;1.03;;
64619;SDS011;51029;51.058;13.826;2022-07-10T08:01:54;3.17;;;1.00;;
64619;SDS011;51029;51.058;13.826;2022-07-10T08:04:20;2.87;;;0.90;;
64619;SDS011;51029;51.058;13.826;2022-07-10T08:06:45;4.53;;;1.10;;
64619;SDS011;51029;51.058;13.826;2022-07-10T08:09:12;2.43;;;0.90;;
64619;SDS011;51029;51.058;13.826;2022-07-10T08:11:38;1.63;;;0.87;;
64619;SDS011;51029;51.058;13.826;2022-07-10T08:14:04;2.27;;;1.00;;
64619;SDS011;51029;51.058;13.826;2022-07-10T08:16:30;3.13;;;1.10;;
64619;SDS011;51029;51.058;13.826;2022-07-10T08:18:55;3.33;;;1.00;;
64619;SDS011;51029;51.058;13.826;2022-07-10T08:21:21;3.20;;;1.00;;
64619;SDS011;51029;51.058;13.826;2022-07-10T08:23:47;1.80;;;0.93;;
64619;SDS011;51029;51.058;13.826;2022-07-10T08:26:13;4.33;;;0.97;;
64619;SDS011;51029;51.058;13.826;2022-07-10T08:28:39;2.47;;;1.00;;
64619;SDS011;51029;51.058;13.826;2022-07-10T08:31:05;2.70;;;0.90;;
64619;SDS011;51029;51.058;13.826;2022-07-10T08:33:31;3.73;;;1.00;;
64619;SDS011;51029;51.058;13.826;2022-07-10T08:35:57;1.90;;;1.00;;
64619;SDS011;51029;51.058;13.826;2022-07-10T08:38:25;2.20;;;1.27;;
64619;SDS011;51029;51.058;13.826;2022-07-10T08:40:51;2.70;;;0.87;;
64619;SDS011;51029;51.058;13.826;2022-07-10T08:43:22;2.13;;;1.20;;
64619;SDS011;51029;51.058;13.826;2022-07-10T08:45:48;3.87;;;1.13;;
64619;SDS011;51029;51.058;13.826;2022-07-10T08:48:15;2.03;;;0.90;;
64619;SDS011;51029;51.058;13.826;2022-07-10T08:50:45;2.87;;;1.20;;
64619;SDS011;51029;51.058;13.826;2022-07-10T08:53:13;2.93;;;0.97;;
64619;SDS011;51029;51.058;13.826;2022-07-10T08:55:41;4.70;;;1.30;;
64619;SDS011;51029;51.058;13.826;2022-07-10T08:58:08;3.90;;;1.10;;
64619;SDS011;51029;51.058;13.826;2022-07-10T09:00:34;3.67;;;1.20;;
64619;SDS011;51029;51.058;13.826;2022-07-10T09:03:00;2.70;;;1.00;;
64619;SDS011;51029;51.058;13.826;2022-07-10T09:05:26;3.30;;;1.30;;
64619;SDS011;51029;51.058;13.826;2022-07-10T09:07:53;4.33;;;1.10;;
64619;SDS011;51029;51.058;13.826;2022-07-10T09:10:19;4.10;;;1.37;;
64619;SDS011;51029;51.058;13.826;2022-07-10T09:15:15;2.10;;;1.00;;
64619;SDS011;51029;51.058;13.826;2022-07-10T09:17:49;3.30;;;1.30;;
64619;SDS011;51029;51.058;13.826;2022-07-10T09:20:28;3.37;;;2.07;;
64619;SDS011;51029;51.058;13.826;2022-07-10T09:22:55;5.23;;;1.23;;
64619;SDS011;51029;51.058;13.826;2022-07-10T09:25:21;3.53;;;1.30;;
64619;SDS011;51029;51.058;13.826;2022-07-10T09:27:53;1.90;;;1.00;;
64619;SDS011;51029;51.058;13.826;2022-07-10T09:30:36;3.57;;;1.20;;
64619;SDS011;51029;51.058;13.826;2022-07-10T09:33:24;4.13;;;1.27;;
64619;SDS011;51029;51.058;13.826;2022-07-10T09:41:13;4.17;;;1.07;;
64619;SDS011;51029;51.058;13.826;2022-07-10T09:43:46;5.10;;;1.20;;
64619;SDS011;51029;51.058;13.826;2022-07-10T09:46:13;2.90;;;1.20;;
64619;SDS011;51029;51.058;13.826;2022-07-10T09:48:39;2.33;;;1.00;;
64619;SDS011;51029;51.058;13.826;2022-07-10T09:51:06;5.30;;;1.20;;
64619;SDS011;51029;51.058;13.826;2022-07-10T09:53:39;2.40;;;1.20;;
64619;SDS011;51029;51.058;13.826;2022-07-10T09:56:06;3.50;;;1.13;;
64619;SDS011;51029;51.058;13.826;2022-07-10T09:58:33;4.93;;;1.23;;
64619;SDS011;51029;51.058;13.826;2022-07-10T10:01:00;4.80;;;1.40;;
64619;SDS011;51029;51.058;13.826;2022-07-10T10:03:27;2.17;;;1.20;;
64619;SDS011;51029;51.058;13.826;2022-07-10T10:09:04;4.27;;;1.30;;
64619;SDS011;51029;51.058;13.826;2022-07-10T10:11:31;4.10;;;1.23;;
64619;SDS011;51029;51.058;13.826;2022-07-10T10:13:57;2.10;;;1.30;;
64619;SDS011;51029;51.058;13.826;2022-07-10T10:16:23;3.80;;;1.23;;
64619;SDS011;51029;51.058;13.826;2022-07-10T10:18:51;3.50;;;1.07;;
64619;SDS011;51029;51.058;13.826;2022-07-10T10:21:36;2.93;;;1.20;;
64619;SDS011;51029;51.058;13.826;2022-07-10T10:24:02;2.67;;;0.97;;
64619;SDS011;51029;51.058;13.826;2022-07-10T10:26:28;3.67;;;1.27;;
64619;SDS011;51029;51.058;13.826;2022-07-10T10:28:55;4.87;;;1.23;;
64619;SDS011;51029;51.058;13.826;2022-07-10T10:31:22;4.60;;;1.70;;
64619;SDS011;51029;51.058;13.826;2022-07-10T10:33:49;3.60;;;1.30;;
64619;SDS011;51029;51.058;13.826;2022-07-10T10:36:42;3.50;;;1.07;;
64619;SDS011;51029;51.058;13.826;2022-07-10T10:41:38;5.00;;;1.30;;
64619;SDS011;51029;51.058;13.826;2022-07-10T10:49:22;4.03;;;1.33;;
64619;SDS011;51029;51.058;13.826;2022-07-10T10:54:28;5.07;;;1.33;;
64619;SDS011;51029;51.058;13.826;2022-07-10T10:57:12;4.63;;;1.30;;
64619;SDS011;51029;51.058;13.826;2022-07-10T10:59:46;7.20;;;1.40;;
64619;SDS011;51029;51.058;13.826;2022-07-10T11:02:27;3.20;;;1.40;;
64619;SDS011;51029;51.058;13.826;2022-07-10T11:07:52;6.33;;;1.50;;
64619;SDS011;51029;51.058;13.826;2022-07-10T11:10:28;3.43;;;1.23;;
64619;SDS011;51029;51.058;13.826;2022-07-10T11:12:59;5.83;;;1.20;;
64619;SDS011;51029;51.058;13.826;2022-07-10T11:15:26;4.60;;;1.43;;
64619;SDS011;51029;51.058;13.826;2022-07-10T11:17:55;5.17;;;1.43;;
64619;SDS011;51029;51.058;13.826;2022-07-10T11:20:22;5.17;;;1.63;;
64619;SDS011;51029;51.058;13.826;2022-07-10T11:25:31;5.17;;;1.53;;
64619;SDS011;51029;51.058;13.826;2022-07-10T11:28:10;3.27;;;1.30;;
64619;SDS011;51029;51.058;13.826;2022-07-10T11:33:09;3.33;;;1.33;;
64619;SDS011;51029;51.058;13.826;2022-07-10T11:35:35;6.30;;;1.50;;
64619;SDS011;51029;51.058;13.826;2022-07-10T11:38:01;4.83;;;1.70;;
64619;SDS011;51029;51.058;13.826;2022-07-10T11:40:27;4.10;;;1.90;;
64619;SDS011;51029;51.058;13.826;2022-07-10T11:42:54;4.33;;;1.70;;
64619;SDS011;51029;51.058;13.826;2022-07-10T11:45:21;3.33;;;1.37;;
64619;SDS011;51029;51.058;13.826;2022-07-10T11:47:47;4.97;;;1.37;;
64619;SDS011;51029;51.058;13.826;2022-07-10T11:50:13;4.03;;;1.40;;
64619;SDS011;51029;51.058;13.826;2022-07-10T11:52:40;4.93;;;1.40;;
64619;SDS011;51029;51.058;13.826;2022-07-10T11:55:19;4.40;;;1.50;;
64619;SDS011;51029;51.058;13.826;2022-07-10T11:57:45;4.17;;;1.43;;
64619;SDS011;51029;51.058;13.826;2022-07-10T12:00:21;3.00;;;1.30;;
64619;SDS011;51029;51.058;13.826;2022-07-10T12:02:48;6.87;;;1.43;;
64619;SDS011;51029;51.058;13.826;2022-07-10T12:05:30;2.43;;;1.33;;
64619;SDS011;51029;51.058;13.826;2022-07-10T12:07:56;4.70;;;1.57;;
64619;SDS011;51029;51.058;13.826;2022-07-10T12:10:25;4.97;;;1.60;;
64619;SDS011;51029;51.058;13.826;2022-07-10T12:12:51;3.30;;;1.30;;
64619;SDS011;51029;51.058;13.826;2022-07-10T12:15:30;6.13;;;1.50;;
64619;SDS011;51029;51.058;13.826;2022-07-10T12:17:56;4.77;;;1.50;;
64619;SDS011;51029;51.058;13.826;2022-07-10T12:20:22;5.97;;;1.50;;
64619;SDS011;51029;51.058;13.826;2022-07-10T12:22:48;6.07;;;1.60;;
64619;SDS011;51029;51.058;13.826;2022-07-10T12:25:14;6.13;;;1.63;;
64619;SDS011;51029;51.058;13.826;2022-07-10T12:27:40;5.57;;;1.50;;
64619;SDS011;51029;51.058;13.826;2022-07-10T12:30:06;6.60;;;1.60;;
64619;SDS011;51029;51.058;13.826;2022-07-10T12:32:32;6.00;;;1.70;;
64619;SDS011;51029;51.058;13.826;2022-07-10T12:34:58;5.93;;;1.80;;
64619;SDS011;51029;51.058;13.826;2022-07-10T12:37:24;6.77;;;1.90;;
64619;SDS011;51029;51.058;13.826;2022-07-10T12:39:51;6.97;;;1.90;;
64619;SDS011;51029;51.058;13.826;2022-07-10T12:42:28;5.97;;;1.70;;
64619;SDS011;51029;51.058;13.826;2022-07-10T12:44:54;5.40;;;1.50;;
64619;SDS011;51029;51.058;13.826;2022-07-10T12:47:21;6.37;;;2.50;;
64619;SDS011;51029;51.058;13.826;2022-07-10T12:49:48;4.53;;;1.50;;
64619;SDS011;51029;51.058;13.826;2022-07-10T12:52:20;4.90;;;1.80;;
64619;SDS011;51029;51.058;13.826;2022-07-10T12:54:46;3.53;;;1.40;;
64619;SDS011;51029;51.058;13.826;2022-07-10T12:57:12;7.20;;;1.70;;
64619;SDS011;51029;51.058;13.826;2022-07-10T12:59:38;5.23;;;1.70;;
64619;SDS011;51029;51.058;13.826;2022-07-10T13:02:16;5.97;;;1.57;;
64619;SDS011;51029;51.058;13.826;2022-07-10T13:04:52;5.63;;;1.67;;
64619;SDS011;51029;51.058;13.826;2022-07-10T13:07:18;5.37;;;1.63;;
64619;SDS011;51029;51.058;13.826;2022-07-10T13:09:46;5.67;;;1.87;;
64619;SDS011;51029;51.058;13.826;2022-07-10T13:12:15;3.37;;;1.50;;
64619;SDS011;51029;51.058;13.826;2022-07-10T13:14:41;6.23;;;1.90;;
64619;SDS011;51029;51.058;13.826;2022-07-10T13:17:07;5.17;;;1.77;;
64619;SDS011;51029;51.058;13.826;2022-07-10T13:19:33;4.60;;;1.57;;
64619;SDS011;51029;51.058;13.826;2022-07-10T13:21:59;4.10;;;1.40;;
64619;SDS011;51029;51.058;13.826;2022-07-10T13:24:25;5.57;;;1.50;;
64619;SDS011;51029;51.058;13.826;2022-07-10T13:26:53;5.10;;;1.53;;
64619;SDS011;51029;51.058;13.826;2022-07-10T13:29:21;3.87;;;1.40;;
64619;SDS011;51029;51.058;13.826;2022-07-10T13:31:47;3.60;;;1.40;;
64619;SDS011;51029;51.058;13.826;2022-07-10T13:34:13;3.67;;;1.30;;
64619;SDS011;51029;51.058;13.826;2022-07-10T13:36:39;3.97;;;1.20;;
64619;SDS011;51029;51.058;13.826;2022-07-10T13:39:05;5.90;;;1.40;;
64619;SDS011;51029;51.058;13.826;2022-07-10T13:41:31;3.40;;;1.40;;
64619;SDS011;51029;51.058;13.826;2022-07-10T13:43:57;7.03;;;1.60;;
64619;SDS011;51029;51.058;13.826;2022-07-10T13:46:23;4.23;;;1.37;;
64619;SDS011;51029;51.058;13.826;2022-07-10T13:48:49;4.63;;;1.57;;
64619;SDS011;51029;51.058;13.826;2022-07-10T13:51:15;4.47;;;1.50;;
64619;SDS011;51029;51.058;13.826;2022-07-10T13:53:41;8.40;;;1.50;;
64619;SDS011;51029;51.058;13.826;2022-07-10T13:56:07;5.17;;;1.50;;
64619;SDS011;51029;51.058;13.826;2022-07-10T13:58:34;5.97;;;1.47;;
64619;SDS011;51029;51.058;13.826;2022-07-10T14:01:01;7.37;;;1.70;;
64619;SDS011;51029;51.058;13.826;2022-07-10T14:03:28;5.60;;;1.77;;
64619;SDS011;51029;51.058;13.826;2022-07-10T14:05:54;5.50;;;1.73;;
64619;SDS011;51029;51.058;13.826;2022-07-10T14:08:20;5.20;;;1.60;;
64619;SDS011;51029;51.058;13.826;2022-07-10T14:10:46;6.17;;;1.50;;
64619;SDS011;51029;51.058;13.826;2022-07-10T14:13:12;4.67;;;1.30;;
64619;SDS011;51029;51.058;13.826;2022-07-10T14:15:38;4.00;;;1.37;;
64619;SDS011;51029;51.058;13.826;2022-07-10T14:18:05;7.37;;;1.93;;
64619;SDS011;51029;51.058;13.826;2022-07-10T14:20:31;4.67;;;1.40;;
64619;SDS011;51029;51.058;13.826;2022-07-10T14:23:17;5.47;;;1.70;;
64619;SDS011;51029;51.058;13.826;2022-07-10T14:25:43;4.57;;;1.60;;
64619;SDS011;51029;51.058;13.826;2022-07-10T14:28:09;5.90;;;1.60;;
64619;SDS011;51029;51.058;13.826;2022-07-10T14:30:38;6.17;;;2.00;;
64619;SDS011;51029;51.058;13.826;2022-07-10T14:33:04;5.17;;;1.50;;
64619;SDS011;51029;51.058;13.826;2022-07-10T14:35:30;4.83;;;1.40;;
64619;SDS011;51029;51.058;13.826;2022-07-10T14:37:56;4.97;;;1.40;;
64619;SDS011;51029;51.058;13.826;2022-07-10T14:40:22;6.43;;;1.60;;
64619;SDS011;51029;51.058;13.826;2022-07-10T14:42:48;5.23;;;1.50;;
64619;SDS011;51029;51.058;13.826;2022-07-10T14:45:13;6.37;;;1.70;;
64619;SDS011;51029;51.058;13.826;2022-07-10T14:47:39;5.67;;;1.53;;
64619;SDS011;51029;51.058;13.826;2022-07-10T14:50:06;5.50;;;1.77;;
64619;SDS011;51029;51.058;13.826;2022-07-10T14:52:32;8.27;;;1.97;;
64619;SDS011;51029;51.058;13.826;2022-07-10T14:54:58;4.80;;;1.37;;
64619;SDS011;51029;51.058;13.826;2022-07-10T14:57:27;5.03;;;1.50;;
64619;SDS011;51029;51.058;13.826;2022-07-10T14:59:53;4.50;;;1.50;;
64619;SDS011;51029;51.058;13.826;2022-07-10T15:02:18;5.07;;;1.50;;